createdAt,value
2023-11-25T00:01:07.425Z,93358.28
2023-11-25T00:02:20.076Z,93356.63
2023-11-25T00:03:27.614Z,93352.21
2023-11-25T00:04:35.189Z,93349.64
2023-11-25T00:05:42.116Z,93352.39
2023-11-25T00:06:50.404Z,93347.11
2023-11-25T00:07:57.236Z,93352.71
2023-11-25T00:09:05.581Z,93351.41
2023-11-25T00:10:14.898Z,93349.98
2023-11-25T00:11:28.223Z,93350.55
2023-11-25T00:12:37.918Z,93352.95
2023-11-25T00:13:46.619Z,93351.29
2023-11-25T00:14:53.375Z,93352.17
2023-11-25T00:16:00.417Z,93348.68
2023-11-25T00:17:07.174Z,93346.45
2023-11-25T00:18:14.498Z,93346.86
2023-11-25T00:19:20.962Z,93342.30
2023-11-25T00:20:28.519Z,93342.35
2023-11-25T00:21:34.768Z,93336.83
2023-11-25T00:22:41.422Z,93333.78
2023-11-25T00:23:49.914Z,93336.63
2023-11-25T00:24:57.518Z,93333.94
2023-11-25T00:26:05.204Z,93334.05
2023-11-25T00:27:12.116Z,93332.71
2023-11-25T00:28:18.752Z,93333.05
2023-11-25T00:29:26.655Z,93331.73
2023-11-25T00:30:35.382Z,93331.86
2023-11-25T00:31:42.859Z,93329.54
2023-11-25T00:32:50.877Z,93326.02
2023-11-25T00:33:57.514Z,93327.96
2023-11-25T00:35:07.661Z,93331.65
2023-11-25T00:36:14.350Z,93333.13
2023-11-25T00:37:22.191Z,93337.71
2023-11-25T00:38:29.762Z,93337.26
2023-11-25T00:39:36.628Z,93334.56
2023-11-25T00:40:43.030Z,93333.13
2023-11-25T00:41:49.828Z,93332.49
2023-11-25T00:42:56.226Z,93329.34
2023-11-25T00:44:04.550Z,93332.21
2023-11-25T00:45:12.570Z,93326.48
2023-11-25T00:46:19.190Z,93327.73
2023-11-25T00:47:25.510Z,93330.33
2023-11-25T00:48:32.649Z,93326.88
2023-11-25T00:49:40.017Z,93330.42
2023-11-25T00:50:47.008Z,93329.53
2023-11-25T00:51:53.672Z,93328.30
2023-11-25T00:53:01.006Z,93331.55
2023-11-25T00:54:09.432Z,93331.24
2023-11-25T00:55:16.116Z,93331.54
2023-11-25T00:56:23.038Z,93333.62
2023-11-25T00:57:29.777Z,93333.30
2023-11-25T00:58:36.394Z,93332.92
2023-11-25T00:59:44.949Z,93332.43
2023-11-25T01:00:53.779Z,93332.48
2023-11-25T01:02:00.937Z,93334.05
2023-11-25T01:03:08.158Z,93332.70
2023-11-25T01:04:14.745Z,93333.67
2023-11-25T01:05:21.026Z,93331.69
2023-11-25T01:06:28.523Z,93327.36
2023-11-25T01:07:35.060Z,93326.05
2023-11-25T01:08:42.764Z,93322.34
2023-11-25T01:09:50.680Z,93322.27
2023-11-25T01:10:57.129Z,93321.66
2023-11-25T01:12:05.450Z,93320.14
2023-11-25T01:13:12.027Z,93314.11
2023-11-25T01:14:19.242Z,93314.58
2023-11-25T01:15:26.617Z,93317.89
2023-11-25T01:16:34.671Z,93317.33
2023-11-25T01:17:41.773Z,93318.30
2023-11-25T01:18:48.790Z,93321.96
2023-11-25T01:19:55.421Z,93317.84
2023-11-25T01:21:02.012Z,93321.04
2023-11-25T01:22:08.957Z,93323.75
2023-11-25T01:23:19.019Z,93321.63
2023-11-25T01:24:25.512Z,93322.34
2023-11-25T01:25:32.686Z,93323.61
2023-11-25T01:26:39.659Z,93319.83
2023-11-25T01:27:46.147Z,93320.27
2023-11-25T01:28:53.806Z,93317.99
2023-11-25T01:30:01.636Z,93316.59
2023-11-25T01:31:11.417Z,93317.74
2023-11-25T01:32:18.754Z,93311.35
2023-11-25T01:33:26.968Z,93312.65
2023-11-25T01:34:34.038Z,93308.96
2023-11-25T01:35:41.095Z,93307.48
2023-11-25T01:36:47.331Z,93305.36
2023-11-25T01:37:53.815Z,93306.51
2023-11-25T01:39:00.670Z,93305.47
2023-11-25T01:40:13.059Z,93302.48
2023-11-25T01:41:19.842Z,93299.44
2023-11-25T01:42:26.961Z,93302.27
2023-11-25T01:43:33.453Z,93300.50
2023-11-25T01:44:39.949Z,93300.58
2023-11-25T01:45:52.243Z,93301.92
2023-11-25T01:46:59.127Z,93296.39
2023-11-25T01:48:08.357Z,93292.59
2023-11-25T01:49:17.309Z,93289.50
2023-11-25T01:50:22.362Z,93291.15
2023-11-25T01:51:29.584Z,93294.81
2023-11-25T01:52:39.661Z,93291.67
2023-11-25T01:53:47.778Z,93294.48
2023-11-25T01:54:54.500Z,93293.40
2023-11-25T01:56:02.155Z,93293.23
2023-11-25T01:57:10.125Z,93292.08
2023-11-25T01:58:19.574Z,93289.23
2023-11-25T01:59:29.312Z,93288.83
2023-11-25T02:00:41.379Z,93287.15
2023-11-25T02:01:48.284Z,93291.63
2023-11-25T02:02:56.809Z,93288.91
2023-11-25T02:04:03.178Z,93290.84
2023-11-25T02:05:11.664Z,93287.44
2023-11-25T02:06:19.127Z,93285.98
2023-11-25T02:07:25.714Z,93283.19
2023-11-25T02:08:33.736Z,93284.87
2023-11-25T02:09:42.859Z,93282.97
2023-11-25T02:10:47.836Z,93287.31
2023-11-25T02:11:58.786Z,93286.86
2023-11-25T02:13:09.953Z,93285.54
2023-11-25T02:14:16.690Z,93280.96
2023-11-25T02:15:24.100Z,93278.25
2023-11-25T02:16:30.613Z,93275.39
2023-11-25T02:17:37.778Z,93271.02
2023-11-25T02:18:45.274Z,93270.50
2023-11-25T02:19:55.961Z,93270.20
2023-11-25T02:21:03.535Z,93274.36
2023-11-25T02:22:13.482Z,93271.85
2023-11-25T02:23:23.661Z,93273.09
2023-11-25T02:24:31.587Z,93272.12
2023-11-25T02:25:39.305Z,93273.95
2023-11-25T02:26:46.143Z,93275.80
2023-11-25T02:27:52.824Z,93273.17
2023-11-25T02:28:59.547Z,93275.04
2023-11-25T02:30:08.305Z,93270.02
2023-11-25T02:31:14.696Z,93265.45
2023-11-25T02:32:21.656Z,93263.55
2023-11-25T02:33:36.323Z,93260.19
2023-11-25T02:34:42.720Z,93257.36
2023-11-25T02:35:49.329Z,93254.70
2023-11-25T02:36:55.671Z,93256.55
2023-11-25T02:38:02.218Z,93250.42
2023-11-25T02:39:11.274Z,93250.63
2023-11-25T02:40:18.915Z,93252.40
2023-11-25T02:41:26.783Z,93249.23
2023-11-25T02:42:33.612Z,93251.42
2023-11-25T02:43:40.360Z,93252.64
2023-11-25T02:44:47.900Z,93253.11
2023-11-25T02:45:54.893Z,93248.70
2023-11-25T02:47:01.866Z,93252.16
2023-11-25T02:48:11.942Z,93250.48
2023-11-25T02:49:19.218Z,93249.23
2023-11-25T02:50:26.178Z,93245.80
2023-11-25T02:51:35.372Z,93246.43
2023-11-25T02:52:42.296Z,93243.95
2023-11-25T02:53:50.730Z,93246.60
2023-11-25T02:54:57.456Z,93244.23
2023-11-25T02:56:04.356Z,93243.29
2023-11-25T02:57:13.485Z,93240.05
2023-11-25T02:58:18.499Z,93240.62
2023-11-25T02:59:25.663Z,93240.20
2023-11-25T03:00:38.342Z,93235.91
2023-11-25T03:01:55.722Z,93234.20
2023-11-25T03:03:18.718Z,93231.00
2023-11-25T03:04:28.608Z,93228.65
2023-11-25T03:05:35.211Z,93228.88
2023-11-25T03:06:43.185Z,93225.01
2023-11-25T03:07:51.660Z,93228.95
2023-11-25T03:08:59.045Z,93228.10
2023-11-25T03:10:07.753Z,93227.92
2023-11-25T03:11:19.305Z,93228.01
2023-11-25T03:12:26.047Z,93229.11
2023-11-25T03:13:33.412Z,93225.19
2023-11-25T03:14:40.316Z,93224.65
2023-11-25T03:15:46.955Z,93225.89
2023-11-25T03:16:57.354Z,93229.90
2023-11-25T03:18:04.020Z,93231.04
2023-11-25T03:19:12.834Z,93230.80
2023-11-25T03:20:19.907Z,93232.33
2023-11-25T03:21:26.548Z,93232.60
2023-11-25T03:22:32.926Z,93233.95
2023-11-25T03:23:39.916Z,93231.00
2023-11-25T03:24:47.094Z,93228.23
2023-11-25T03:25:53.918Z,93226.53
2023-11-25T03:27:00.687Z,93227.07
2023-11-25T03:28:10.281Z,93228.89
2023-11-25T03:29:19.880Z,93231.54
2023-11-25T03:30:29.180Z,93228.95
2023-11-25T03:31:35.740Z,93227.64
2023-11-25T03:32:43.143Z,93222.56
2023-11-25T03:33:49.867Z,93224.35
2023-11-25T03:34:58.528Z,93220.17
2023-11-25T03:36:09.642Z,93220.85
2023-11-25T03:37:16.416Z,93214.46
2023-11-25T03:38:24.840Z,93212.47
2023-11-25T03:39:32.666Z,93206.17
2023-11-25T03:40:39.277Z,93207.64
2023-11-25T03:41:46.650Z,93205.45
2023-11-25T03:42:53.000Z,93211.36
2023-11-25T03:44:02.236Z,93208.86
2023-11-25T03:45:10.773Z,93213.16
2023-11-25T03:46:15.936Z,93213.17
2023-11-25T03:47:24.554Z,93212.63
2023-11-25T03:48:33.829Z,93215.88
2023-11-25T03:49:40.580Z,93216.50
2023-11-25T03:50:47.634Z,93220.66
2023-11-25T03:51:54.114Z,93223.45
2023-11-25T03:53:00.837Z,93217.58
2023-11-25T03:54:07.623Z,93218.50
2023-11-25T03:55:15.247Z,93215.32
2023-11-25T03:56:22.604Z,93218.50
2023-11-25T03:57:29.169Z,93217.71
2023-11-25T03:58:37.295Z,93219.77
2023-11-25T03:59:44.251Z,93218.58
2023-11-25T04:00:51.099Z,93217.39
2023-11-25T04:01:57.972Z,93216.84
2023-11-25T04:03:05.846Z,93215.73
2023-11-25T04:04:13.687Z,93217.98
2023-11-25T04:05:20.977Z,93216.93
2023-11-25T04:06:27.723Z,93218.83
2023-11-25T04:07:34.563Z,93220.64
2023-11-25T04:08:41.519Z,93223.20
2023-11-25T04:09:48.383Z,93222.54
2023-11-25T04:10:55.272Z,93221.16
2023-11-25T04:12:02.410Z,93218.08
2023-11-25T04:13:08.807Z,93216.49
2023-11-25T04:14:16.545Z,93214.65
2023-11-25T04:15:23.751Z,93216.73
2023-11-25T04:16:30.254Z,93213.16
2023-11-25T04:17:37.865Z,93218.46
2023-11-25T04:18:44.324Z,93217.51
2023-11-25T04:19:50.918Z,93216.77
2023-11-25T04:20:57.718Z,93214.48
2023-11-25T04:22:05.548Z,93217.55
2023-11-25T04:23:14.403Z,93225.70
2023-11-25T04:24:24.012Z,93223.30
2023-11-25T04:25:30.320Z,93225.94
2023-11-25T04:26:38.708Z,93229.15
2023-11-25T04:27:50.972Z,93225.73
2023-11-25T04:28:57.650Z,93224.69
2023-11-25T04:30:04.311Z,93231.00
2023-11-25T04:31:10.841Z,93229.73
2023-11-25T04:32:17.662Z,93229.42
2023-11-25T04:33:26.236Z,93222.09
2023-11-25T04:34:32.871Z,93223.06
2023-11-25T04:35:39.534Z,93227.88
2023-11-25T04:36:46.556Z,93225.18
2023-11-25T04:37:53.793Z,93225.84
2023-11-25T04:39:00.511Z,93222.14
2023-11-25T04:40:12.928Z,93222.85
2023-11-25T04:41:19.563Z,93219.58
2023-11-25T04:42:27.291Z,93218.38
2023-11-25T04:43:33.943Z,93221.30
2023-11-25T04:44:41.944Z,93217.70
2023-11-25T04:45:49.745Z,93219.77
2023-11-25T04:46:56.185Z,93219.36
2023-11-25T04:48:05.306Z,93221.18
2023-11-25T04:49:12.337Z,93221.34
2023-11-25T04:50:22.550Z,93217.23
2023-11-25T04:51:32.688Z,93222.40
2023-11-25T04:52:39.397Z,93222.55
2023-11-25T04:53:45.925Z,93220.52
2023-11-25T04:54:52.862Z,93220.52
2023-11-25T04:55:59.386Z,93218.45
2023-11-25T04:57:08.411Z,93216.08
2023-11-25T04:58:16.916Z,93215.00
2023-11-25T04:59:26.572Z,93211.87
2023-11-25T05:00:33.241Z,93211.27
2023-11-25T05:01:40.633Z,93211.04
2023-11-25T05:02:49.398Z,93211.54
2023-11-25T05:03:55.950Z,93209.27
2023-11-25T05:05:02.405Z,93211.73
2023-11-25T05:06:15.077Z,93213.23
2023-11-25T05:07:22.900Z,93212.59
2023-11-25T05:08:31.051Z,93212.35
2023-11-25T05:09:39.569Z,93209.88
2023-11-25T05:10:46.766Z,93209.63
2023-11-25T05:11:55.846Z,93210.71
2023-11-25T05:13:03.571Z,93212.25
2023-11-25T05:14:09.984Z,93207.48
2023-11-25T05:15:17.094Z,93204.00
2023-11-25T05:16:23.635Z,93203.77
2023-11-25T05:17:30.751Z,93203.27
2023-11-25T05:18:38.409Z,93204.60
2023-11-25T05:19:45.762Z,93205.65
2023-11-25T05:20:53.145Z,93208.16
2023-11-25T05:21:59.815Z,93208.92
2023-11-25T05:23:07.853Z,93209.81
2023-11-25T05:24:15.379Z,93207.20
2023-11-25T05:25:23.852Z,93208.57
2023-11-25T05:26:31.848Z,93205.02
2023-11-25T05:27:38.188Z,93207.77
2023-11-25T05:28:44.742Z,93208.13
2023-11-25T05:29:51.663Z,93206.42
2023-11-25T05:30:58.080Z,93208.08
2023-11-25T05:32:05.722Z,93209.01
2023-11-25T05:33:12.175Z,93212.28
2023-11-25T05:34:18.800Z,93220.93
2023-11-25T05:35:25.514Z,93219.09
2023-11-25T05:36:34.489Z,93221.90
2023-11-25T05:37:42.770Z,93222.13
2023-11-25T05:38:51.139Z,93226.23
2023-11-25T05:39:57.585Z,93225.13
2023-11-25T05:41:05.788Z,93224.14
2023-11-25T05:42:15.334Z,93223.96
2023-11-25T05:43:25.347Z,93221.45
2023-11-25T05:44:34.158Z,93217.97
2023-11-25T05:45:42.594Z,93219.53
2023-11-25T05:46:49.256Z,93219.25
2023-11-25T05:47:55.908Z,93216.05
2023-11-25T05:49:06.328Z,93214.56
2023-11-25T05:50:13.510Z,93212.83
2023-11-25T05:51:21.644Z,93211.23
2023-11-25T05:52:28.182Z,93212.02
2023-11-25T05:53:36.390Z,93211.89
2023-11-25T05:54:45.129Z,93214.86
2023-11-25T05:55:51.475Z,93212.81
2023-11-25T05:56:57.899Z,93215.56
2023-11-25T05:58:04.554Z,93211.94
2023-11-25T05:59:11.322Z,93215.30
2023-11-25T06:00:25.262Z,93217.61
2023-11-25T06:01:34.252Z,93213.03
2023-11-25T06:02:43.388Z,93218.15
2023-11-25T06:03:54.420Z,93218.34
2023-11-25T06:05:01.330Z,93219.67
2023-11-25T06:06:09.978Z,93222.47
2023-11-25T06:07:16.731Z,93225.33
2023-11-25T06:08:23.315Z,93224.59
2023-11-25T06:09:29.859Z,93226.45
2023-11-25T06:10:36.197Z,93219.39
2023-11-25T06:11:42.788Z,93225.25
2023-11-25T06:12:49.108Z,93227.62
2023-11-25T06:13:58.456Z,93230.46
2023-11-25T06:15:06.916Z,93234.88
2023-11-25T06:16:14.468Z,93232.73
2023-11-25T06:17:25.269Z,93234.48
2023-11-25T06:18:32.459Z,93232.70
2023-11-25T06:19:39.948Z,93229.83
2023-11-25T06:20:47.937Z,93225.79
2023-11-25T06:21:55.933Z,93222.02
2023-11-25T06:23:02.882Z,93221.17
2023-11-25T06:24:10.900Z,93223.58
2023-11-25T06:25:18.306Z,93222.69
2023-11-25T06:26:25.144Z,93223.23
2023-11-25T06:27:31.874Z,93228.59
2023-11-25T06:28:43.133Z,93230.77
2023-11-25T06:29:51.157Z,93232.54
2023-11-25T06:30:58.156Z,93231.23
2023-11-25T06:32:04.955Z,93229.72
2023-11-25T06:33:11.729Z,93229.83
2023-11-25T06:34:18.570Z,93231.94
2023-11-25T06:35:27.041Z,93226.27
2023-11-25T06:36:33.420Z,93226.02
2023-11-25T06:37:42.245Z,93219.75
2023-11-25T06:38:46.900Z,93217.27
2023-11-25T06:39:53.444Z,93220.08
2023-11-25T06:40:59.972Z,93213.73
2023-11-25T06:42:10.352Z,93216.23
2023-11-25T06:43:16.964Z,93214.58
2023-11-25T06:44:24.352Z,93210.82
2023-11-25T06:45:31.599Z,93208.91
2023-11-25T06:46:37.923Z,93207.24
2023-11-25T06:47:44.731Z,93209.83
2023-11-25T06:48:53.927Z,93209.16
2023-11-25T06:50:02.816Z,93210.15
2023-11-25T06:51:12.926Z,93212.09
2023-11-25T06:52:19.577Z,93208.34
2023-11-25T06:53:25.993Z,93209.36
2023-11-25T06:54:34.238Z,93214.68
2023-11-25T06:55:42.817Z,93212.56
2023-11-25T06:56:49.621Z,93206.41
2023-11-25T06:57:55.866Z,93210.94
2023-11-25T06:59:02.328Z,93209.23
2023-11-25T07:00:13.061Z,93208.63
2023-11-25T07:01:23.470Z,93213.19
2023-11-25T07:02:31.171Z,93215.41
2023-11-25T07:03:37.911Z,93221.09
2023-11-25T07:04:44.670Z,93218.73
2023-11-25T07:05:51.659Z,93221.86
2023-11-25T07:06:58.368Z,93220.21
2023-11-25T07:08:06.521Z,93220.97
2023-11-25T07:09:16.499Z,93224.55
2023-11-25T07:10:22.989Z,93226.65
2023-11-25T07:11:32.620Z,93226.17
2023-11-25T07:12:39.437Z,93231.56
2023-11-25T07:13:46.473Z,93231.34
2023-11-25T07:14:53.730Z,93233.88
2023-11-25T07:16:02.727Z,93231.72
2023-11-25T07:17:13.334Z,93233.50
2023-11-25T07:18:21.132Z,93234.35
2023-11-25T07:19:28.364Z,93232.31
2023-11-25T07:20:35.021Z,93235.46
2023-11-25T07:21:41.371Z,93237.59
2023-11-25T07:22:48.695Z,93233.23
2023-11-25T07:23:57.465Z,93229.51
2023-11-25T07:25:03.866Z,93227.91
2023-11-25T07:26:13.908Z,93229.77
2023-11-25T07:27:20.518Z,93230.35
2023-11-25T07:28:27.912Z,93231.84
2023-11-25T07:29:36.458Z,93231.05
2023-11-25T07:30:43.425Z,93230.52
2023-11-25T07:31:50.560Z,93234.57
2023-11-25T07:32:58.053Z,93233.13
2023-11-25T07:34:07.462Z,93235.08
2023-11-25T07:35:14.154Z,93235.66
2023-11-25T07:36:21.446Z,93239.50
2023-11-25T07:37:28.676Z,93238.61
2023-11-25T07:38:35.212Z,93238.20
2023-11-25T07:39:41.913Z,93236.48
2023-11-25T07:40:48.575Z,93232.77
2023-11-25T07:41:55.622Z,93230.61
2023-11-25T07:43:02.703Z,93231.84
2023-11-25T07:44:09.499Z,93239.77
2023-11-25T07:45:17.990Z,93240.95
2023-11-25T07:46:25.121Z,93244.36
2023-11-25T07:47:32.182Z,93250.81
2023-11-25T07:48:39.391Z,93251.83
2023-11-25T07:49:47.105Z,93251.80
2023-11-25T07:50:53.746Z,93251.61
2023-11-25T07:52:00.351Z,93251.19
2023-11-25T07:53:08.495Z,93251.57
2023-11-25T07:54:15.385Z,93250.80
2023-11-25T07:55:22.566Z,93249.30
2023-11-25T07:56:29.633Z,93248.17
2023-11-25T07:57:36.133Z,93250.30
2023-11-25T07:58:42.862Z,93253.09
2023-11-25T07:59:50.954Z,93255.08
2023-11-25T08:00:59.639Z,93257.86
2023-11-25T08:02:07.061Z,93260.33
2023-11-25T08:03:14.289Z,93258.23
2023-11-25T08:04:20.837Z,93258.81
2023-11-25T08:05:27.750Z,93258.08
2023-11-25T08:06:34.098Z,93253.31
2023-11-25T08:07:41.655Z,93256.52
2023-11-25T08:08:47.964Z,93256.95
2023-11-25T08:09:54.209Z,93257.58
2023-11-25T08:11:00.753Z,93257.51
2023-11-25T08:12:09.851Z,93257.23
2023-11-25T08:13:19.589Z,93259.09
2023-11-25T08:14:26.973Z,93254.25
2023-11-25T08:15:34.452Z,93254.21
2023-11-25T08:16:41.220Z,93253.38
2023-11-25T08:17:47.896Z,93253.65
2023-11-25T08:18:54.801Z,93253.14
2023-11-25T08:20:01.675Z,93252.33
2023-11-25T08:21:08.888Z,93254.10
2023-11-25T08:22:16.199Z,93254.80
2023-11-25T08:23:23.035Z,93254.98
2023-11-25T08:24:30.110Z,93256.01
2023-11-25T08:25:36.857Z,93253.56
2023-11-25T08:26:43.294Z,93255.77
2023-11-25T08:27:53.144Z,93249.91
2023-11-25T08:29:00.633Z,93247.16
2023-11-25T08:30:12.875Z,93250.79
2023-11-25T08:31:20.050Z,93244.80
2023-11-25T08:32:26.800Z,93245.21
2023-11-25T08:33:35.389Z,93243.68
2023-11-25T08:34:42.018Z,93241.77
2023-11-25T08:35:50.213Z,93243.14
2023-11-25T08:36:56.732Z,93240.30
2023-11-25T08:38:03.274Z,93244.89
2023-11-25T08:39:10.543Z,93242.30
2023-11-25T08:40:18.467Z,93241.16
2023-11-25T08:41:27.254Z,93240.31
2023-11-25T08:42:33.842Z,93234.66
2023-11-25T08:43:44.788Z,93234.02
2023-11-25T08:44:52.468Z,93228.94
2023-11-25T08:46:01.434Z,93225.89
2023-11-25T08:47:08.354Z,93224.51
2023-11-25T08:48:16.066Z,93223.79
2023-11-25T08:49:23.670Z,93223.83
2023-11-25T08:50:30.515Z,93223.98
2023-11-25T08:51:36.955Z,93224.86
2023-11-25T08:52:45.839Z,93228.05
2023-11-25T08:53:52.426Z,93234.30
2023-11-25T08:54:58.908Z,93235.69
2023-11-25T08:56:08.136Z,93238.58
2023-11-25T08:57:16.334Z,93237.48
2023-11-25T08:58:27.403Z,93233.48
2023-11-25T08:59:34.415Z,93229.32
2023-11-25T09:00:41.434Z,93226.73
2023-11-25T09:01:50.332Z,93230.36
2023-11-25T09:02:58.812Z,93230.45
2023-11-25T09:04:08.047Z,93232.48
2023-11-25T09:05:16.351Z,93236.19
2023-11-25T09:06:24.892Z,93238.24
2023-11-25T09:07:33.599Z,93238.88
2023-11-25T09:08:41.921Z,93238.30
2023-11-25T09:09:51.125Z,93241.95
2023-11-25T09:10:59.005Z,93241.89
2023-11-25T09:12:09.811Z,93244.23
2023-11-25T09:13:16.723Z,93246.86
2023-11-25T09:14:23.307Z,93253.39
2023-11-25T09:15:31.058Z,93250.52
2023-11-25T09:16:40.257Z,93250.37
2023-11-25T09:17:47.031Z,93255.85
2023-11-25T09:18:56.398Z,93257.64
2023-11-25T09:20:05.836Z,93257.95
2023-11-25T09:21:12.263Z,93255.68
2023-11-25T09:22:18.927Z,93261.06
2023-11-25T09:23:25.950Z,93263.05
2023-11-25T09:24:32.560Z,93256.31
2023-11-25T09:25:39.301Z,93257.45
2023-11-25T09:26:48.281Z,93254.27
2023-11-25T09:27:54.990Z,93258.77
2023-11-25T09:29:02.132Z,93260.92
2023-11-25T09:30:13.216Z,93257.67
2023-11-25T09:31:20.483Z,93252.98
2023-11-25T09:32:29.075Z,93255.61
2023-11-25T09:33:37.595Z,93253.14
2023-11-25T09:34:45.410Z,93252.32
2023-11-25T09:35:52.217Z,93250.06
2023-11-25T09:36:58.784Z,93250.70
2023-11-25T09:38:05.585Z,93252.91
2023-11-25T09:39:13.225Z,93250.65
2023-11-25T09:40:21.257Z,93248.52
2023-11-25T09:41:32.226Z,93250.48
2023-11-25T09:42:39.222Z,93248.78
2023-11-25T09:43:46.474Z,93248.64
2023-11-25T09:44:54.142Z,93242.24
2023-11-25T09:46:01.985Z,93244.52
2023-11-25T09:47:09.374Z,93246.05
2023-11-25T09:48:15.922Z,93239.80
2023-11-25T09:49:23.319Z,93238.92
2023-11-25T09:50:29.807Z,93232.71
2023-11-25T09:51:37.902Z,93232.02
2023-11-25T09:52:51.504Z,93226.21
2023-11-25T09:54:03.726Z,93223.73
2023-11-25T09:55:11.237Z,93220.65
2023-11-25T09:56:19.872Z,93220.64
2023-11-25T09:57:34.305Z,93216.46
2023-11-25T09:58:40.828Z,93212.77
2023-11-25T09:59:48.155Z,93213.14
2023-11-25T10:00:57.397Z,93214.09
2023-11-25T10:02:07.944Z,93219.02
2023-11-25T10:03:16.523Z,93220.23
2023-11-25T10:04:29.008Z,93221.59
2023-11-25T10:05:37.440Z,93217.67
2023-11-25T10:06:43.956Z,93212.31
2023-11-25T10:07:51.157Z,93206.20
2023-11-25T10:08:57.768Z,93200.70
2023-11-25T10:10:06.267Z,93202.41
2023-11-25T10:11:16.484Z,93209.25
2023-11-25T10:12:22.953Z,93206.47
2023-11-25T10:13:33.777Z,93209.34
2023-11-25T10:14:44.546Z,93206.40
2023-11-25T10:15:52.592Z,93200.38
2023-11-25T10:16:59.019Z,93196.71
2023-11-25T10:18:07.989Z,93194.11
2023-11-25T10:19:24.380Z,93196.35
2023-11-25T10:20:32.341Z,93196.55
2023-11-25T10:21:39.829Z,93200.50
2023-11-25T10:22:50.188Z,93198.60
2023-11-25T10:24:07.123Z,93197.84
2023-11-25T10:25:14.018Z,93197.63
2023-11-25T10:26:22.426Z,93193.69
2023-11-25T10:27:29.216Z,93196.01
2023-11-25T10:28:38.262Z,93193.38
2023-11-25T10:29:43.281Z,93191.16
2023-11-25T10:30:57.824Z,93189.02
2023-11-25T10:32:05.426Z,93188.16
2023-11-25T10:33:13.295Z,93185.52
2023-11-25T10:34:22.530Z,93185.79
2023-11-25T10:35:27.938Z,93180.82
2023-11-25T10:36:35.228Z,93180.09
2023-11-25T10:37:42.213Z,93181.43
2023-11-25T10:38:50.404Z,93177.23
2023-11-25T10:39:57.013Z,93178.64
2023-11-25T10:41:07.124Z,93175.53
2023-11-25T10:42:14.871Z,93171.11
2023-11-25T10:43:23.579Z,93171.55
2023-11-25T10:44:31.706Z,93177.63
2023-11-25T10:45:39.109Z,93173.89
2023-11-25T10:46:45.866Z,93177.14
2023-11-25T10:47:52.907Z,93176.48
2023-11-25T10:49:01.841Z,93176.06
2023-11-25T10:50:09.895Z,93174.98
2023-11-25T10:51:17.613Z,93170.54
2023-11-25T10:52:25.185Z,93170.70
2023-11-25T10:53:32.095Z,93167.49
2023-11-25T10:54:39.551Z,93166.48
2023-11-25T10:55:47.975Z,93160.86
2023-11-25T10:56:57.750Z,93162.16
2023-11-25T10:58:06.533Z,93157.08
2023-11-25T10:59:16.513Z,93154.64
2023-11-25T11:00:23.716Z,93155.17
2023-11-25T11:01:34.375Z,93152.42
2023-11-25T11:02:48.750Z,93151.54
2023-11-25T11:04:04.188Z,93149.54
2023-11-25T11:05:10.190Z,93148.81
2023-11-25T11:06:21.589Z,93147.91
2023-11-25T11:07:32.029Z,93140.78
2023-11-25T11:08:44.140Z,93141.33
2023-11-25T11:09:56.259Z,93141.65
2023-11-25T11:11:08.725Z,93135.81
2023-11-25T11:12:25.329Z,93137.41
2023-11-25T11:13:39.344Z,93137.23
2023-11-25T11:14:56.002Z,93138.17
2023-11-25T11:16:08.163Z,93133.64
2023-11-25T11:17:30.045Z,93133.64
2023-11-25T11:18:40.678Z,93137.85
2023-11-25T11:19:52.376Z,93135.64
2023-11-25T11:21:02.222Z,93131.59
2023-11-25T11:22:12.391Z,93132.20
2023-11-25T11:23:21.077Z,93131.47
2023-11-25T11:24:34.630Z,93128.48
2023-11-25T11:25:49.805Z,93129.36
2023-11-25T11:27:06.497Z,93125.67
2023-11-25T11:28:24.531Z,93120.59
2023-11-25T11:29:38.286Z,93123.41
2023-11-25T11:31:04.211Z,93129.33
2023-11-25T11:32:14.898Z,93131.13
2023-11-25T11:33:22.010Z,93132.84
2023-11-25T11:34:30.776Z,93128.51
2023-11-25T11:35:41.364Z,93128.21
2023-11-25T11:36:47.970Z,93135.19
2023-11-25T11:37:58.889Z,93140.50
2023-11-25T11:39:10.261Z,93140.27
2023-11-25T11:40:21.785Z,93139.82
2023-11-25T11:41:31.926Z,93138.77
2023-11-25T11:42:41.065Z,93142.66
2023-11-25T11:44:01.520Z,93139.16
2023-11-25T11:45:15.900Z,93137.19
2023-11-25T11:46:22.222Z,93137.21
2023-11-25T11:47:29.117Z,93135.50
2023-11-25T11:48:35.950Z,93138.64
2023-11-25T11:49:42.722Z,93138.04
2023-11-25T11:50:56.314Z,93136.80
2023-11-25T11:52:06.751Z,93136.65
2023-11-25T11:53:17.687Z,93129.41
2023-11-25T11:54:29.697Z,93132.80
2023-11-25T11:55:40.651Z,93130.58
2023-11-25T11:57:03.894Z,93132.30
2023-11-25T11:58:12.560Z,93134.50
2023-11-25T11:59:19.599Z,93130.70
2023-11-25T12:00:28.995Z,93126.23
2023-11-25T12:01:36.245Z,93122.27
2023-11-25T12:02:44.473Z,93117.42
2023-11-25T12:03:53.243Z,93115.46
2023-11-25T12:05:02.216Z,93111.06
2023-11-25T12:06:16.450Z,93106.06
2023-11-25T12:07:23.318Z,93099.39
2023-11-25T12:08:32.427Z,93094.41
2023-11-25T12:09:39.081Z,93094.09
2023-11-25T12:10:45.717Z,93095.05
2023-11-25T12:12:02.424Z,93092.82
2023-11-25T12:13:13.423Z,93092.91
2023-11-25T12:14:20.030Z,93098.63
2023-11-25T12:15:26.692Z,93098.02
2023-11-25T12:16:34.663Z,93096.58
2023-11-25T12:17:43.841Z,93094.36
2023-11-25T12:18:51.025Z,93094.62
2023-11-25T12:19:58.985Z,93097.56
2023-11-25T12:21:07.170Z,93099.52
2023-11-25T12:22:14.191Z,93099.88
2023-11-25T12:23:20.587Z,93100.36
2023-11-25T12:24:27.929Z,93102.86
2023-11-25T12:25:35.475Z,93101.95
2023-11-25T12:26:51.788Z,93099.39
2023-11-25T12:28:06.052Z,93091.73
2023-11-25T12:29:17.780Z,93090.48
2023-11-25T12:30:26.268Z,93090.65
2023-11-25T12:31:34.366Z,93092.42
2023-11-25T12:32:42.153Z,93096.25
2023-11-25T12:33:49.810Z,93098.11
2023-11-25T12:34:56.645Z,93098.20
2023-11-25T12:36:04.091Z,93097.67
2023-11-25T12:37:14.123Z,93099.44
2023-11-25T12:38:22.946Z,93099.38
2023-11-25T12:39:30.078Z,93096.43
2023-11-25T12:40:37.911Z,93092.73
2023-11-25T12:41:44.769Z,93085.55
2023-11-25T12:42:53.674Z,93082.14
2023-11-25T12:44:11.888Z,93084.90
2023-11-25T12:45:41.805Z,93073.64
2023-11-25T12:47:05.933Z,93069.14
2023-11-25T12:48:17.583Z,93067.23
2023-11-25T12:49:27.905Z,93068.13
2023-11-25T12:50:36.436Z,93058.91
2023-11-25T12:51:46.860Z,93059.84
2023-11-25T12:53:09.024Z,93058.02
2023-11-25T12:54:15.647Z,93059.05
2023-11-25T12:55:36.379Z,93055.73
2023-11-25T12:56:44.640Z,93058.55
2023-11-25T12:57:51.613Z,93059.84
2023-11-25T12:58:57.942Z,93060.34
2023-11-25T13:00:12.340Z,93056.06
2023-11-25T13:01:26.848Z,93059.36
2023-11-25T13:02:35.259Z,93055.53
2023-11-25T13:03:42.522Z,93051.73
2023-11-25T13:04:51.954Z,93047.23
2023-11-25T13:06:05.694Z,93049.10
2023-11-25T13:07:31.756Z,93050.98
2023-11-25T13:08:46.676Z,93052.95
2023-11-25T13:09:52.952Z,93056.13
2023-11-25T13:11:01.960Z,93054.50
2023-11-25T13:12:09.884Z,93056.67
2023-11-25T13:13:18.014Z,93055.95
2023-11-25T13:14:25.390Z,93055.29
2023-11-25T13:15:31.917Z,93052.75
2023-11-25T13:16:39.855Z,93052.48
2023-11-25T13:17:49.801Z,93048.55
2023-11-25T13:18:59.089Z,93053.67
2023-11-25T13:20:12.155Z,93057.48
2023-11-25T13:21:20.157Z,93063.85
2023-11-25T13:22:26.595Z,93067.86
2023-11-25T13:23:34.619Z,93068.85